Time;durP1;ratioP1;P1;durP2;ratioP2;P2;SDS_P1;SDS_P2;PMS_P1;PMS_P2;Temp;Humidity;BMP_temperature;BMP_pressure;BME280_temperature;BME280_humidity;BME280_pressure;Samples;Min_cycle;Max_cycle;Signal;HPM_P1;HPM_P2
2023/01/22 00:01:42;;;;;;;12.18;9.18;;;;;;;-1.14;100.00;99086.06;5025620;28;20038;-66
2023/01/22 00:04:48;;;;;;;14.00;9.02;;;;;;;-1.10;100.00;99092.03;5009469;28;20076;-66
2023/01/22 00:07:41;;;;;;;15.30;9.52;;;;;;;-1.04;100.00;99080.78;5007330;28;20095;-68
2023/01/22 00:10:32;;;;;;;14.88;9.15;;;;;;;-1.33;100.00;99088.09;5021244;28;20057;-66
2023/01/22 00:13:16;;;;;;;12.13;8.88;;;;;;;-1.31;100.00;99081.22;5034560;28;20088;-65
2023/01/22 00:16:01;;;;;;;12.75;8.57;;;;;;;-1.12;100.00;99080.91;5054024;28;20127;-66
2023/01/22 00:18:45;;;;;;;13.73;8.63;;;;;;;-1.07;100.00;99094.56;5031589;28;20126;-66
2023/01/22 00:21:30;;;;;;;10.25;7.50;;;;;;;-1.10;100.00;99099.75;5034933;28;20063;-66
2023/01/22 00:24:15;;;;;;;10.45;7.15;;;;;;;-1.06;100.00;99103.97;5033967;28;20037;-66
2023/01/22 00:27:00;;;;;;;10.60;7.28;;;;;;;-0.77;100.00;99110.34;5035435;28;20048;-66
2023/01/22 00:29:45;;;;;;;11.75;8.15;;;;;;;-0.71;100.00;99111.13;5037799;28;20057;-66
2023/01/22 00:32:29;;;;;;;14.00;8.90;;;;;;;-1.07;100.00;99098.84;5040265;28;20441;-66
2023/01/22 00:35:14;;;;;;;11.80;8.75;;;;;;;-1.09;100.00;99093.72;5044590;28;20032;-66
2023/01/22 00:38:00;;;;;;;12.57;8.65;;;;;;;-1.21;100.00;99096.50;5041926;28;20040;-66
2023/01/22 00:40:44;;;;;;;14.35;10.02;;;;;;;-1.19;100.00;99098.16;5050609;28;20039;-66
2023/01/22 00:43:29;;;;;;;13.60;8.60;;;;;;;-1.32;100.00;99097.47;5046330;28;20101;-66
2023/01/22 00:46:15;;;;;;;12.70;9.05;;;;;;;-1.33;100.00;99105.22;5033627;28;20033;-66
2023/01/22 00:49:02;;;;;;;14.45;9.32;;;;;;;-1.38;100.00;99113.00;5038890;28;20037;-66
2023/01/22 00:51:46;;;;;;;14.77;9.48;;;;;;;-1.32;100.00;99110.34;5054947;28;20063;-66
2023/01/22 00:54:31;;;;;;;15.75;10.27;;;;;;;-1.46;100.00;99107.13;5020692;28;20044;-66
2023/01/22 00:57:20;;;;;;;12.98;9.10;;;;;;;-1.27;100.00;99100.84;5034144;28;20053;-66
2023/01/22 01:00:09;;;;;;;11.93;8.45;;;;;;;-1.45;100.00;99088.28;5036188;28;20041;-66
2023/01/22 01:06:20;;;;;;;11.60;8.43;;;;;;;-1.37;100.00;99087.28;5010028;28;20052;-66
2023/01/22 01:09:04;;;;;;;13.70;9.80;;;;;;;-1.37;100.00;99094.97;5021463;28;20500;-67
2023/01/22 01:11:49;;;;;;;13.77;8.93;;;;;;;-1.07;100.00;99114.28;5004677;28;20073;-66
2023/01/22 01:14:35;;;;;;;14.63;9.35;;;;;;;-1.04;100.00;99120.22;4990928;28;20050;-66
2023/01/22 01:17:21;;;;;;;12.02;7.72;;;;;;;-1.17;100.00;99121.28;5006626;28;20049;-66
2023/01/22 01:20:06;;;;;;;14.25;9.40;;;;;;;-1.00;100.00;99131.31;5006698;28;20054;-66
2023/01/22 01:22:51;;;;;;;13.48;8.88;;;;;;;-0.93;100.00;99119.22;5019006;28;20100;-66
2023/01/22 01:25:40;;;;;;;14.00;8.82;;;;;;;-1.01;100.00;99121.88;5012368;28;20133;-66
2023/01/22 01:28:27;;;;;;;12.30;7.93;;;;;;;-0.88;100.00;99122.56;5012029;28;20033;-66
2023/01/22 01:31:14;;;;;;;13.07;8.38;;;;;;;-1.00;100.00;99121.03;5008323;28;20058;-66
2023/01/22 01:33:59;;;;;;;12.55;8.27;;;;;;;-1.11;100.00;99123.78;4998280;28;20092;-65
2023/01/22 01:36:44;;;;;;;12.07;8.10;;;;;;;-1.07;100.00;99125.41;5009647;28;20076;-65
2023/01/22 01:39:29;;;;;;;12.63;8.73;;;;;;;-0.85;100.00;99126.81;5008749;28;20477;-64
2023/01/22 01:42:19;;;;;;;12.00;8.32;;;;;;;-1.03;100.00;99129.63;5045292;28;20029;-66
2023/01/22 01:45:30;;;;;;;12.63;8.30;;;;;;;-0.77;100.00;99122.41;5031621;28;20060;-66
2023/01/22 01:48:20;;;;;;;13.48;8.50;;;;;;;-0.61;100.00;99117.84;5016693;28;20042;-66
2023/01/22 01:51:25;;;;;;;13.48;8.85;;;;;;;-0.85;100.00;99126.81;5032578;28;20037;-66
2023/01/22 01:54:10;;;;;;;13.00;8.73;;;;;;;-0.97;100.00;99120.13;5018101;28;20037;-66
2023/01/22 01:57:26;;;;;;;12.57;8.20;;;;;;;-0.98;100.00;99114.16;5031278;28;20045;-66
2023/01/22 02:00:14;;;;;;;13.50;8.88;;;;;;;-1.29;100.00;99105.16;5050513;28;20419;-67
2023/01/22 02:02:59;;;;;;;14.75;9.00;;;;;;;-1.35;100.00;99109.56;5056000;28;20037;-66
2023/01/22 02:05:44;;;;;;;14.15;9.05;;;;;;;-1.21;100.00;99115.34;5069051;28;20067;-66
2023/01/22 02:08:29;;;;;;;13.70;9.45;;;;;;;-1.30;100.00;99106.03;5060894;28;20041;-66
2023/01/22 02:11:19;;;;;;;14.30;9.25;;;;;;;-1.33;100.00;99105.22;5061832;28;20048;-66
2023/01/22 02:14:17;;;;;;;16.10;10.45;;;;;;;-1.36;100.00;99093.28;5056788;28;20033;-65
2023/01/22 02:17:07;;;;;;;13.50;8.60;;;;;;;-1.19;100.00;99084.47;5050038;28;20151;-65
2023/01/22 02:19:52;;;;;;;13.32;8.73;;;;;;;-1.19;100.00;99090.44;5037474;28;20124;-64
2023/01/22 02:22:38;;;;;;;13.70;8.90;;;;;;;-1.00;100.00;99105.59;5037259;28;20507;-66
2023/01/22 02:25:24;;;;;;;14.43;9.35;;;;;;;-1.09;100.00;99093.72;5039925;28;20553;-65
2023/01/22 02:28:09;;;;;;;14.27;9.05;;;;;;;-1.05;100.00;99087.66;5037167;28;20040;-65
2023/01/22 02:30:54;;;;;;;14.20;8.98;;;;;;;-1.04;100.00;99091.94;5035309;28;20503;-65
2023/01/22 02:33:39;;;;;;;16.38;9.13;;;;;;;-1.25;100.00;99075.09;5051201;28;20500;-65
2023/01/22 02:36:24;;;;;;;14.38;8.82;;;;;;;-1.14;100.00;99080.94;5041279;28;20064;-66
2023/01/22 02:39:09;;;;;;;13.90;8.82;;;;;;;-1.04;100.00;99083.34;5036116;28;20448;-66
2023/01/22 02:42:04;;;;;;;14.25;9.23;;;;;;;-0.99;100.00;99084.13;5048044;28;20124;-65
2023/01/22 02:44:50;;;;;;;13.70;8.82;;;;;;;-1.07;100.00;99081.69;5037140;28;20034;-66
2023/01/22 02:47:35;;;;;;;14.23;9.57;;;;;;;-1.14;100.00;99075.78;5052029;28;20039;-66
2023/01/22 02:50:19;;;;;;;14.70;8.88;;;;;;;-1.27;100.00;99076.84;5054431;28;20091;-65
2023/01/22 02:53:04;;;;;;;14.60;9.65;;;;;;;-1.41;100.00;99071.91;5055537;28;20041;-65
2023/01/22 02:55:50;;;;;;;15.65;9.73;;;;;;;-1.49;100.00;99075.47;5055647;28;20036;-65
2023/01/22 02:58:36;;;;;;;14.23;8.63;;;;;;;-1.63;100.00;99075.63;5054082;28;20448;-65
2023/01/22 03:01:23;;;;;;;24.52;11.68;;;;;;;-1.63;100.00;99075.63;5055955;28;20045;-65
2023/01/22 03:09:01;;;;;;;13.85;9.00;;;;;;;-1.35;100.00;99078.72;5053901;28;20472;-66
2023/01/22 03:11:47;;;;;;;16.98;10.10;;;;;;;-1.55;100.00;99087.53;5033333;28;20045;-65
2023/01/22 03:23:52;;;;;;;14.85;9.25;;;;;;;-1.15;100.00;99083.53;5042877;28;20036;-66
2023/01/22 03:26:36;;;;;;;16.50;9.77;;;;;;;-1.23;100.00;99078.50;5033792;28;20049;-65
2023/01/22 03:29:21;;;;;;;14.43;9.82;;;;;;;-1.39;100.00;99071.00;5048950;28;20045;-66
2023/01/22 03:32:06;;;;;;;15.32;9.98;;;;;;;-1.54;100.00;99069.53;5021394;28;20072;-66
2023/01/22 03:34:53;;;;;;;17.65;10.27;;;;;;;-1.44;100.00;99067.69;5035303;28;20117;-66
2023/01/22 03:37:41;;;;;;;17.15;9.60;;;;;;;-1.36;100.00;99065.00;5040586;28;20047;-66
2023/01/22 03:40:25;;;;;;;14.77;9.13;;;;;;;-1.42;100.00;99072.81;5055114;28;20040;-66
2023/01/22 03:43:13;;;;;;;17.35;10.02;;;;;;;-1.40;100.00;99064.19;5054774;28;20067;-66
2023/01/22 03:46:11;;;;;;;15.07;9.52;;;;;;;-1.29;100.00;99065.75;5033136;28;20107;-65
2023/01/22 03:48:58;;;;;;;16.77;9.75;;;;;;;-1.40;100.00;99065.91;5041417;28;20029;-65
2023/01/22 03:51:43;;;;;;;16.92;10.18;;;;;;;-1.38;100.00;99067.59;5054430;28;20033;-66
2023/01/22 03:54:28;;;;;;;14.77;9.35;;;;;;;-1.27;100.00;99058.84;5020563;28;20396;-66
2023/01/22 03:57:15;;;;;;;16.25;9.75;;;;;;;-1.29;100.00;99065.75;5021057;28;20116;-66
2023/01/22 04:00:00;;;;;;;15.23;8.98;;;;;;;-1.08;100.00;99063.72;5013116;28;20045;-66
2023/01/22 04:02:48;;;;;;;15.77;10.07;;;;;;;-1.37;100.00;99071.84;5046878;28;20099;-66
2023/01/22 04:05:38;;;;;;;17.77;9.95;;;;;;;-1.41;100.00;99066.78;5034120;28;20465;-66
2023/01/22 04:08:23;;;;;;;15.30;8.68;;;;;;;-1.30;100.00;99077.75;5026819;28;20045;-66
2023/01/22 04:11:09;;;;;;;15.93;9.57;;;;;;;-1.33;100.00;99075.22;5020078;28;20037;-66
2023/01/22 04:14:01;;;;;;;14.77;8.88;;;;;;;-1.56;100.00;99081.53;5034629;28;20033;-66
2023/01/22 04:16:50;;;;;;;16.30;9.55;;;;;;;-1.34;100.00;99082.97;5034203;28;20041;-66
2023/01/22 04:20:01;;;;;;;16.17;9.63;;;;;;;-1.29;100.00;99089.72;5034617;28;20042;-66
2023/01/22 04:23:01;;;;;;;17.77;10.80;;;;;;;-1.39;100.00;99086.44;5033991;28;20060;-65
2023/01/22 04:25:46;;;;;;;18.45;10.80;;;;;;;-1.42;100.00;99085.66;5020568;28;20044;-66
2023/01/22 04:28:32;;;;;;;18.45;10.68;;;;;;;-1.43;100.00;99091.66;5033062;28;20132;-66
2023/01/22 04:31:18;;;;;;;19.13;10.13;;;;;;;-1.51;100.00;99073.75;5032192;28;20053;-66
2023/01/22 04:34:17;;;;;;;20.40;11.95;;;;;;;-1.55;100.00;99085.81;5039512;28;20056;-66
2023/01/22 04:37:06;;;;;;;20.48;11.48;;;;;;;-1.50;100.00;99078.03;5036816;28;20401;-66
2023/01/22 04:39:53;;;;;;;18.83;10.55;;;;;;;-1.58;100.00;99085.03;5033747;28;20037;-66
2023/01/22 04:42:37;;;;;;;20.73;11.10;;;;;;;-1.70;100.00;99089.44;5047454;28;20045;-66
2023/01/22 04:45:22;;;;;;;20.88;12.07;;;;;;;-1.67;100.00;99088.56;5031940;28;20033;-64
2023/01/22 04:48:08;;;;;;;16.58;9.90;;;;;;;-1.57;100.00;99091.84;5074904;28;20040;-64
2023/01/22 04:50:54;;;;;;;18.35;10.90;;;;;;;-1.63;100.00;99098.75;5032616;28;20041;-65
2023/01/22 04:53:38;;;;;;;19.88;11.05;;;;;;;-1.53;100.00;99096.91;5037993;28;20043;-65
2023/01/22 04:56:25;;;;;;;16.63;10.07;;;;;;;-1.61;100.00;99102.16;5034164;28;20072;-65
2023/01/22 04:59:10;;;;;;;19.95;10.32;;;;;;;-1.63;100.00;99097.91;5032834;28;20473;-65
2023/01/22 05:01:57;;;;;;;20.10;10.70;;;;;;;-1.53;100.00;99107.19;5041879;28;20043;-65
2023/01/22 05:04:42;;;;;;;20.40;11.55;;;;;;;-1.72;100.00;99106.59;5035422;28;20039;-65
2023/01/22 05:07:27;;;;;;;17.42;9.85;;;;;;;-1.58;100.00;99108.16;5021916;28;20044;-65
2023/01/22 05:10:12;;;;;;;19.08;11.18;;;;;;;-1.54;100.00;99109.78;5048723;28;20051;-65
2023/01/22 05:13:01;;;;;;;20.58;11.77;;;;;;;-1.63;100.00;99115.91;5018780;28;20473;-65
2023/01/22 05:15:46;;;;;;;19.15;10.80;;;;;;;-1.57;100.00;99109.84;5026720;28;20041;-65
2023/01/22 05:18:32;;;;;;;19.60;11.25;;;;;;;-1.52;100.00;99114.03;5033319;28;20064;-65
2023/01/22 05:21:16;;;;;;;18.70;11.27;;;;;;;-1.53;100.00;99108.91;5025685;28;20033;-66
2023/01/22 05:24:01;;;;;;;19.20;11.38;;;;;;;-1.57;100.00;99099.56;5032262;28;20120;-65
2023/01/22 05:26:47;;;;;;;19.95;10.73;;;;;;;-1.43;100.00;99109.63;5061462;28;20084;-65
2023/01/22 05:29:36;;;;;;;20.75;11.88;;;;;;;-1.52;100.00;99108.88;5032996;28;20437;-64
2023/01/22 05:32:35;;;;;;;16.88;9.75;;;;;;;-1.46;100.00;99113.13;5022371;28;20041;-66
2023/01/22 05:35:21;;;;;;;17.95;10.77;;;;;;;-1.67;100.00;99106.53;5032197;28;20037;-64
2023/01/22 05:38:07;;;;;;;18.45;11.07;;;;;;;-1.78;100.00;99114.38;5032944;28;20080;-66
2023/01/22 05:40:53;;;;;;;17.92;10.15;;;;;;;-1.66;100.00;99110.78;5042640;28;20098;-65
2023/01/22 05:43:39;;;;;;;19.17;10.85;;;;;;;-1.61;100.00;99117.59;5032446;28;20465;-64
2023/01/22 05:46:27;;;;;;;19.13;9.35;;;;;;;-1.72;100.00;99116.88;5024993;28;20060;-64
2023/01/22 05:49:30;;;;;;;17.48;10.30;;;;;;;-1.82;100.00;99120.41;5016286;28;20049;-64
2023/01/22 05:52:16;;;;;;;17.95;9.75;;;;;;;-1.67;100.00;99121.97;5048663;28;20037;-65
2023/01/22 05:55:03;;;;;;;18.25;10.32;;;;;;;-1.69;100.00;99119.41;5046125;28;20186;-65
2023/01/22 05:57:57;;;;;;;16.90;10.10;;;;;;;-1.81;100.00;99112.69;5030797;28;20103;-66
2023/01/22 06:00:42;;;;;;;19.40;10.25;;;;;;;-1.92;100.00;99106.81;5036284;28;20058;-65
2023/01/22 06:03:29;;;;;;;18.50;9.88;;;;;;;-1.99;100.00;99106.91;5038807;28;20361;-65
2023/01/22 06:06:15;;;;;;;17.85;9.57;;;;;;;-1.96;100.00;99105.19;5024376;28;20050;-65
2023/01/22 06:09:01;;;;;;;16.70;9.35;;;;;;;-1.92;100.00;99110.25;5033449;28;20062;-65
2023/01/22 06:11:52;;;;;;;16.80;9.30;;;;;;;-1.83;100.00;99113.59;5019514;28;20046;-65
2023/01/22 06:14:37;;;;;;;17.50;9.00;;;;;;;-1.79;100.00;99112.66;5017064;28;20042;-64
2023/01/22 06:17:24;;;;;;;16.13;8.68;;;;;;;-1.85;100.00;99116.19;5018415;28;20461;-64
2023/01/22 06:20:13;;;;;;;16.27;9.55;;;;;;;-1.80;100.00;99106.69;5032515;28;20042;-64
2023/01/22 06:22:58;;;;;;;16.08;8.35;;;;;;;-1.77;100.00;99119.50;5032401;28;20071;-64
2023/01/22 06:25:52;;;;;;;14.93;8.07;;;;;;;-1.71;100.00;99115.16;5046004;28;20130;-64
2023/01/22 06:28:36;;;;;;;16.73;9.27;;;;;;;-1.74;100.00;99119.47;5045174;28;20147;-64
2023/01/22 06:31:23;;;;;;;14.77;8.27;;;;;;;-1.81;100.00;99107.56;5029934;28;20058;-64
2023/01/22 06:34:08;;;;;;;14.68;8.18;;;;;;;-1.84;100.00;99114.47;5032264;28;20042;-65
2023/01/22 06:36:53;;;;;;;13.95;8.13;;;;;;;-1.73;100.00;99112.63;5052290;28;20036;-64
2023/01/22 06:39:38;;;;;;;14.63;9.05;;;;;;;-1.71;100.00;99122.88;5049800;28;20048;-64
2023/01/22 06:42:30;;;;;;;14.48;8.13;;;;;;;-1.79;100.00;99122.94;5035084;28;20049;-64
2023/01/22 06:45:15;;;;;;;14.95;7.50;;;;;;;-1.74;100.00;99124.59;5030243;28;20120;-64
2023/01/22 06:48:04;;;;;;;13.55;7.88;;;;;;;-1.69;100.00;99124.53;5050219;28;20361;-64
2023/01/22 06:50:49;;;;;;;14.18;8.32;;;;;;;-1.55;100.00;99133.81;5050701;28;20048;-64
2023/01/22 06:53:34;;;;;;;12.75;7.10;;;;;;;-1.29;100.00;99143.72;5051901;28;20478;-64
2023/01/22 06:56:21;;;;;;;13.32;7.88;;;;;;;-1.26;100.00;99141.09;5019591;28;20052;-66
2023/01/22 06:59:06;;;;;;;11.35;6.75;;;;;;;-1.37;100.00;99150.69;5017986;28;20029;-64
2023/01/22 07:01:53;;;;;;;11.40;7.07;;;;;;;-1.13;100.00;99159.78;5042629;28;20064;-65
2023/01/22 07:04:43;;;;;;;13.52;7.47;;;;;;;-1.17;100.00;99154.69;5032777;28;20048;-64
2023/01/22 07:07:27;;;;;;;14.20;7.90;;;;;;;-1.42;100.00;99158.47;5039636;28;20045;-65
2023/01/22 07:10:13;;;;;;;12.70;6.85;;;;;;;-1.37;100.00;99166.09;5033038;28;20090;-64
2023/01/22 07:13:00;;;;;;;11.85;7.68;;;;;;;-1.33;100.00;99152.34;5030054;28;20037;-64
2023/01/22 07:15:46;;;;;;;12.80;6.88;;;;;;;-1.23;100.00;99165.94;5046120;28;20072;-64
2023/01/22 07:18:31;;;;;;;12.20;7.15;;;;;;;-1.08;100.00;99169.16;5033568;28;20435;-64
2023/01/22 07:21:15;;;;;;;11.27;6.93;;;;;;;-1.07;100.00;99176.00;5031267;28;20204;-65
2023/01/22 07:24:08;;;;;;;10.07;6.95;;;;;;;-0.97;100.00;99177.59;5033070;28;20558;-65
2023/01/22 07:26:53;;;;;;;12.98;8.02;;;;;;;-1.21;100.00;99171.06;5005613;28;20033;-66
2023/01/22 07:29:38;;;;;;;11.35;7.28;;;;;;;-1.20;100.00;99186.47;5033713;28;20128;-65
2023/01/22 07:32:24;;;;;;;12.88;7.13;;;;;;;-1.13;100.00;99189.81;5041714;28;20116;-65
2023/01/22 07:35:08;;;;;;;12.52;7.82;;;;;;;-1.03;100.00;99186.22;5034851;28;20045;-66
2023/01/22 07:37:56;;;;;;;11.50;6.78;;;;;;;-1.00;100.00;99190.50;5033379;28;20037;-66
2023/01/22 07:40:41;;;;;;;10.38;6.20;;;;;;;-0.85;100.00;99194.56;5068144;28;20128;-64
2023/01/22 07:43:25;;;;;;;9.52;6.82;;;;;;;-0.93;100.00;99191.25;5035849;28;20037;-65
2023/01/22 07:46:10;;;;;;;11.43;6.75;;;;;;;-0.87;100.00;99196.31;5034935;28;20037;-65
2023/01/22 07:48:56;;;;;;;10.35;6.50;;;;;;;-1.01;100.00;99187.06;5032210;28;20049;-65
2023/01/22 07:51:40;;;;;;;9.88;6.88;;;;;;;-1.00;100.00;99183.59;5019740;28;20057;-65
2023/01/22 07:54:26;;;;;;;12.25;7.25;;;;;;;-1.07;100.00;99186.28;5042685;28;20048;-65
2023/01/22 07:57:14;;;;;;;10.20;6.15;;;;;;;-1.12;100.00;99192.38;5039385;28;20044;-65
2023/01/22 08:00:00;;;;;;;9.32;5.65;;;;;;;-0.98;100.00;99200.75;5037978;28;20044;-66
2023/01/22 08:02:49;;;;;;;10.20;5.93;;;;;;;-0.93;100.00;99196.41;5044323;28;20045;-65
2023/01/22 08:05:40;;;;;;;10.25;6.15;;;;;;;-0.85;100.00;99193.72;5034914;28;20423;-66
2023/01/22 08:08:27;;;;;;;8.82;5.55;;;;;;;-0.83;100.00;99202.28;5053440;28;20041;-66
2023/01/22 08:11:12;;;;;;;8.48;4.95;;;;;;;-0.85;100.00;99204.00;5023433;28;20052;-63
2023/01/22 08:13:57;;;;;;;9.68;5.40;;;;;;;-0.95;100.00;99201.56;5051329;28;20052;-64
2023/01/22 08:16:42;;;;;;;9.13;5.55;;;;;;;-0.70;100.00;99208.09;5018937;28;20048;-63
2023/01/22 08:19:28;;;;;;;9.63;5.55;;;;;;;-0.65;100.00;99207.13;5051283;28;20492;-63
2023/01/22 08:22:13;;;;;;;9.15;5.47;;;;;;;-0.78;100.00;99208.16;5023814;28;20207;-63
2023/01/22 08:24:57;;;;;;;9.10;5.00;;;;;;;-0.77;100.00;99209.91;5037404;28;20040;-63
2023/01/22 08:27:44;;;;;;;8.90;5.22;;;;;;;-0.75;100.00;99213.28;5043306;28;20045;-66
2023/01/22 08:30:42;;;;;;;8.10;4.80;;;;;;;-0.64;100.00;99220.84;5050675;28;20064;-65
2023/01/22 08:33:27;;;;;;;7.97;4.65;;;;;;;-0.79;100.00;99225.34;5035007;28;20116;-66
2023/01/22 08:36:12;;;;;;;8.80;4.55;;;;;;;-0.81;100.00;99227.09;5032392;28;20072;-66
2023/01/22 08:38:59;;;;;;;8.05;4.47;;;;;;;-0.59;100.00;99233.66;5036750;28;20033;-64
2023/01/22 08:41:43;;;;;;;7.93;4.70;;;;;;;-0.57;100.00;99243.03;5032657;28;20052;-64
2023/01/22 08:44:28;;;;;;;6.70;4.03;;;;;;;-0.61;100.00;99246.53;5032327;28;20082;-64
2023/01/22 08:47:14;;;;;;;7.93;4.47;;;;;;;-0.63;100.00;99249.13;5032886;28;20029;-65
2023/01/22 08:50:01;;;;;;;6.35;4.22;;;;;;;-0.73;100.00;99257.03;5033100;28;20109;-63
2023/01/22 08:52:46;;;;;;;7.70;4.22;;;;;;;-0.74;100.00;99263.88;5032202;28;20030;-64
2023/01/22 08:55:30;;;;;;;7.43;4.25;;;;;;;-0.57;100.00;99262.81;5047155;28;20056;-64
2023/01/22 08:58:15;;;;;;;7.10;4.05;;;;;;;-0.66;100.00;99263.78;5031665;28;20243;-64
2023/01/22 09:00:59;;;;;;;8.35;5.10;;;;;;;-0.75;100.00;99263.03;5032403;28;20108;-65
2023/01/22 09:03:45;;;;;;;6.75;4.43;;;;;;;-0.68;100.00;99268.94;5032401;28;20045;-65
2023/01/22 09:06:29;;;;;;;6.20;4.20;;;;;;;-0.66;100.00;99263.78;5043984;28;20131;-65
2023/01/22 09:09:14;;;;;;;7.90;4.25;;;;;;;-0.82;100.00;99271.72;5036228;28;20048;-65
2023/01/22 09:11:59;;;;;;;7.28;4.28;;;;;;;-0.68;100.00;99270.66;5032266;28;20047;-65
2023/01/22 09:14:44;;;;;;;7.18;4.40;;;;;;;-0.64;100.00;99280.06;5031327;28;20473;-65
2023/01/22 09:17:34;;;;;;;8.25;4.43;;;;;;;-0.54;100.00;99280.78;5041576;28;20808;-65
2023/01/22 09:20:21;;;;;;;7.13;4.03;;;;;;;-0.44;100.00;99287.47;5015975;28;20057;-66
2023/01/22 09:23:07;;;;;;;5.78;3.95;;;;;;;-0.26;100.00;99294.06;5038804;28;20044;-66
2023/01/22 09:25:52;;;;;;;7.70;3.80;;;;;;;-0.30;100.00;99286.41;5037870;28;20048;-67
2023/01/22 09:28:37;;;;;;;8.18;3.88;;;;;;;-0.31;100.00;99287.31;5049796;28;20053;-67
2023/01/22 09:31:22;;;;;;;6.45;4.00;;;;;;;-0.33;100.00;99296.78;5042846;28;20057;-67
2023/01/22 09:34:08;;;;;;;5.68;3.70;;;;;;;-0.10;100.00;99295.56;5053489;28;20051;-67
2023/01/22 09:36:53;;;;;;;6.15;3.90;;;;;;;-0.28;100.00;99293.22;5040315;28;20044;-68
2023/01/22 09:39:41;;;;;;;6.53;3.90;;;;;;;-0.38;100.00;99291.69;5034124;28;20045;-65
2023/01/22 09:42:34;;;;;;;7.00;3.75;;;;;;;-0.07;100.00;99296.38;5034220;28;20060;-66
2023/01/22 09:45:24;;;;;;;7.38;4.30;;;;;;;-0.29;100.00;99304.41;5030164;28;20034;-66
2023/01/22 09:48:14;;;;;;;5.68;3.70;;;;;;;-0.05;100.00;99311.81;5037327;28;20068;-65
2023/01/22 09:50:59;;;;;;;5.57;3.13;;;;;;;0.08;100.00;99297.00;5031149;28;20168;-66
2023/01/22 09:53:51;;;;;;;5.28;3.30;;;;;;;-0.15;100.00;99300.78;5030911;28;20119;-66
2023/01/22 09:56:41;;;;;;;6.00;3.60;;;;;;;0.07;100.00;99298.69;5030742;28;20043;-66
2023/01/22 09:59:33;;;;;;;5.03;2.97;;;;;;;-0.01;100.00;99306.56;5035947;28;20124;-68
2023/01/22 10:02:38;;;;;;;6.15;3.60;;;;;;;0.34;100.00;99311.16;5031456;28;20047;-65
2023/01/22 10:05:38;;;;;;;5.65;3.17;;;;;;;-0.16;100.00;99304.22;5031780;28;20610;-68
2023/01/22 10:08:38;;;;;;;5.35;3.53;;;;;;;-0.10;100.00;99309.31;5032698;28;20446;-67
2023/01/22 10:11:23;;;;;;;5.45;3.15;;;;;;;0.38;100.00;99307.63;5060985;28;20071;-67
2023/01/22 10:14:14;;;;;;;6.15;3.35;;;;;;;0.31;100.00;99309.47;5033591;28;20068;-68
2023/01/22 10:17:02;;;;;;;5.50;3.45;;;;;;;0.20;100.00;99308.78;5046211;28;20408;-66
2023/01/22 10:19:54;;;;;;;5.60;3.60;;;;;;;0.29;100.00;99305.22;5031539;28;20041;-67
2023/01/22 10:22:39;;;;;;;5.07;3.53;;;;;;;0.68;100.00;99310.53;5041281;28;20048;-67
2023/01/22 10:25:25;;;;;;;5.43;3.10;;;;;;;0.58;100.00;99306.41;5050888;28;20041;-67
2023/01/22 10:28:11;;;;;;;5.18;3.08;;;;;;;0.61;100.00;99312.38;5042842;28;20041;-69
2023/01/22 10:30:57;;;;;;;6.65;3.70;;;;;;;0.62;100.00;99313.19;5036020;28;20058;-67
2023/01/22 10:33:44;;;;;;;7.07;4.07;;;;;;;0.78;100.00;99321.53;5033397;28;20484;-68
2023/01/22 10:36:30;;;;;;;6.00;4.28;;;;;;;0.79;100.00;99310.31;5032288;28;20042;-66
2023/01/22 10:39:15;;;;;;;6.32;4.20;;;;;;;0.49;100.00;99316.00;5031877;28;20048;-66
2023/01/22 10:42:01;;;;;;;6.97;4.40;;;;;;;0.18;100.00;99311.41;5029891;28;20085;-66
2023/01/22 10:44:46;;;;;;;6.18;4.15;;;;;;;0.19;100.00;99320.00;5035483;28;20568;-68
2023/01/22 10:47:45;;;;;;;7.60;4.60;;;;;;;0.45;100.00;99318.69;5032078;28;20384;-68
2023/01/22 10:50:35;;;;;;;8.88;4.15;;;;;;;0.69;100.00;99319.97;5048332;28;20033;-66
2023/01/22 10:53:32;;;;;;;6.70;4.32;;;;;;;0.66;100.00;99314.00;5044597;28;20436;-69
2023/01/22 10:57:14;;;;;;;6.60;4.38;;;;;;;0.67;100.00;99321.69;5033509;28;20044;-67
2023/01/22 11:00:14;;;;;;;8.07;4.82;;;;;;;0.52;100.00;99316.84;5018631;28;20096;-67
2023/01/22 11:03:00;;;;;;;7.03;4.32;;;;;;;1.01;100.00;99314.19;5035793;28;20427;-67
2023/01/22 11:06:02;;;;;;;9.00;5.55;;;;;;;0.40;100.00;99316.19;5032280;28;20120;-67
2023/01/22 11:09:48;;;;;;;7.65;4.85;;;;;;;0.45;100.00;99322.13;5016661;28;20386;-67
2023/01/22 11:12:49;;;;;;;8.52;5.25;;;;;;;0.60;100.00;99325.28;5053626;28;20060;-69
2023/01/22 11:15:43;;;;;;;8.82;4.43;;;;;;;3.58;100.00;99319.78;5028555;28;20092;-64
2023/01/22 11:19:12;;;;;;;7.90;4.53;;;;;;;2.94;100.00;99319.91;5027704;28;20041;-65
2023/01/22 11:22:02;;;;;;;8.23;5.28;;;;;;;1.39;100.00;99324.59;5031057;28;20491;-68
2023/01/22 11:24:54;;;;;;;8.82;4.30;;;;;;;0.92;100.00;99323.81;5040794;28;20091;-67
2023/01/22 11:28:12;;;;;;;9.38;5.35;;;;;;;0.56;100.00;99329.66;5028925;28;20048;-66
2023/01/22 11:31:07;;;;;;;8.90;5.70;;;;;;;0.33;100.00;99325.75;5056015;28;20131;-67
2023/01/22 11:34:26;;;;;;;7.53;4.75;;;;;;;0.61;100.00;99329.56;5033187;28;20054;-66
2023/01/22 11:37:19;;;;;;;9.43;5.45;;;;;;;0.59;100.00;99328.72;5047657;28;20052;-67
2023/01/22 11:40:28;;;;;;;8.23;4.40;;;;;;;0.76;100.00;99327.56;5034789;28;20045;-68
2023/01/22 11:43:31;;;;;;;7.68;5.28;;;;;;;0.85;100.00;99335.13;5034439;28;20469;-68
2023/01/22 11:46:36;;;;;;;7.53;5.00;;;;;;;0.86;100.00;99329.09;5034808;28;20411;-67
2023/01/22 11:49:42;;;;;;;7.35;4.32;;;;;;;0.93;100.00;99327.25;5037490;28;20139;-67
2023/01/22 11:52:45;;;;;;;6.72;4.22;;;;;;;0.91;100.00;99329.88;5039452;28;20033;-67
2023/01/22 11:56:04;;;;;;;7.63;5.00;;;;;;;0.92;100.00;99330.69;5045776;28;20045;-68
2023/01/22 11:58:58;;;;;;;7.15;4.40;;;;;;;0.67;100.00;99339.75;5033487;28;20117;-68
2023/01/22 12:01:55;;;;;;;7.07;4.40;;;;;;;0.88;100.00;99339.41;5050841;28;20439;-68
2023/01/22 12:05:13;;;;;;;8.13;5.10;;;;;;;0.74;100.00;99343.09;5038745;28;20048;-68
2023/01/22 12:08:13;;;;;;;7.85;4.90;;;;;;;0.89;100.00;99339.38;5033714;28;20043;-68
2023/01/22 12:10:58;;;;;;;7.43;4.50;;;;;;;0.76;100.00;99341.34;5035170;28;20551;-66
2023/01/22 12:14:14;;;;;;;6.97;4.82;;;;;;;0.79;100.00;99345.56;5034550;28;20037;-68
2023/01/22 12:17:10;;;;;;;7.32;4.88;;;;;;;0.65;100.00;99349.28;5031613;28;20044;-68
2023/01/22 12:20:25;;;;;;;7.72;4.93;;;;;;;0.69;100.00;99350.91;5039134;28;20059;-67
2023/01/22 12:23:24;;;;;;;6.90;4.50;;;;;;;0.79;100.00;99354.16;5038396;28;20495;-68
2023/01/22 12:26:26;;;;;;;7.03;4.55;;;;;;;1.01;100.00;99351.19;5052497;28;20045;-68
2023/01/22 12:29:15;;;;;;;7.28;4.80;;;;;;;0.92;100.00;99352.19;5040873;28;20029;-68
2023/01/22 12:32:09;;;;;;;7.63;4.60;;;;;;;0.56;100.00;99352.00;5055038;28;20391;-67
2023/01/22 12:35:13;;;;;;;7.15;4.60;;;;;;;0.97;100.00;99360.72;5049616;28;20491;-68
2023/01/22 12:38:33;;;;;;;7.95;4.75;;;;;;;0.93;100.00;99365.97;5037316;28;20045;-68
2023/01/22 12:41:39;;;;;;;7.75;4.55;;;;;;;0.90;100.00;99372.03;5032901;28;20546;-67
2023/01/22 12:44:48;;;;;;;6.38;4.28;;;;;;;1.07;100.00;99376.88;5033762;28;20447;-68
2023/01/22 12:47:44;;;;;;;7.22;4.70;;;;;;;0.86;100.00;99381.53;5018524;28;20045;-67
2023/01/22 12:50:29;;;;;;;8.02;4.90;;;;;;;0.74;100.00;99381.78;5043144;28;20037;-68
2023/01/22 12:53:27;;;;;;;8.57;5.28;;;;;;;0.85;100.00;99384.16;5047094;28;20037;-68
2023/01/22 12:56:26;;;;;;;7.13;4.75;;;;;;;0.76;100.00;99394.66;5055770;28;20044;-68
2023/01/22 12:59:40;;;;;;;7.07;4.68;;;;;;;0.77;100.00;99386.88;5047122;28;20044;-69
2023/01/22 13:02:37;;;;;;;8.13;4.82;;;;;;;0.83;100.00;99391.91;5033622;28;20039;-68
2023/01/22 13:05:25;;;;;;;7.25;4.97;;;;;;;0.89;100.00;99390.97;5045442;28;20087;-70
2023/01/22 13:08:15;;;;;;;6.63;4.43;;;;;;;0.97;100.00;99399.41;5054293;28;20040;-68
2023/01/22 13:11:04;;;;;;;7.70;5.38;;;;;;;1.03;100.00;99400.19;5053551;28;20091;-68
2023/01/22 13:13:55;;;;;;;6.75;4.38;;;;;;;1.16;100.00;99405.97;5049932;28;20041;-65
2023/01/22 13:16:40;;;;;;;7.65;5.53;;;;;;;0.83;100.00;99404.81;5032060;28;20469;-66
2023/01/22 13:19:28;;;;;;;7.38;4.75;;;;;;;0.81;100.00;99419.50;5036539;28;20555;-67
2023/01/22 13:22:17;;;;;;;6.82;4.60;;;;;;;0.93;100.00;99421.00;5035849;28;20068;-66
2023/01/22 13:25:28;;;;;;;7.03;4.93;;;;;;;1.10;100.00;99419.81;5038886;28;20041;-64